createdAt,value
2022-11-20T00:02:14.585Z,-4.90
2022-11-20T00:04:47.823Z,-4.80
2022-11-20T00:07:26.525Z,-4.80
2022-11-20T00:09:54.738Z,-4.70
2022-11-20T00:12:21.677Z,-4.80
2022-11-20T00:14:49.052Z,-4.80
2022-11-20T00:17:20.784Z,-4.80
2022-11-20T00:19:51.578Z,-4.80
2022-11-20T00:22:20.289Z,-4.80
2022-11-20T00:25:04.436Z,-4.80
2022-11-20T00:27:34.934Z,-4.90
2022-11-20T00:30:20.987Z,-4.80
2022-11-20T00:32:50.188Z,-4.80
2022-11-20T00:35:18.775Z,-4.70
2022-11-20T00:37:45.751Z,-4.80
2022-11-20T00:40:13.206Z,-4.80
2022-11-20T00:42:41.114Z,-4.80
2022-11-20T00:45:09.779Z,-4.80
2022-11-20T00:47:36.519Z,-4.80
2022-11-20T00:50:10.185Z,-4.80
2022-11-20T00:53:02.146Z,-4.80
2022-11-20T00:55:29.182Z,-4.80
2022-11-20T00:58:02.398Z,-4.90
2022-11-20T01:00:35.649Z,-4.90
2022-11-20T01:03:04.745Z,-4.80
2022-11-20T01:05:36.583Z,-5.00
2022-11-20T01:08:04.411Z,-4.90
2022-11-20T01:13:30.509Z,-4.90
2022-11-20T01:16:17.937Z,-5.00
2022-11-20T01:18:48.274Z,-4.90
2022-11-20T01:21:21.963Z,-4.90
2022-11-20T01:23:55.128Z,-4.90
2022-11-20T01:26:26.797Z,-4.90
2022-11-20T01:28:55.932Z,-4.90
2022-11-20T01:31:25.431Z,-4.90
2022-11-20T01:33:58.051Z,-4.90
2022-11-20T01:36:29.577Z,-4.90
2022-11-20T01:39:06.262Z,-4.80
2022-11-20T01:41:53.308Z,-4.80
2022-11-20T01:44:23.702Z,-4.90
2022-11-20T01:47:05.040Z,-4.90
2022-11-20T01:49:45.242Z,-4.80
2022-11-20T01:52:25.379Z,-4.90
2022-11-20T01:55:01.375Z,-4.90
2022-11-20T01:57:30.620Z,-5.00
2022-11-20T02:00:07.604Z,-5.00
2022-11-20T02:02:36.182Z,-5.00
2022-11-20T02:05:24.454Z,-5.00
2022-11-20T02:07:52.220Z,-5.00
2022-11-20T02:10:19.459Z,-4.90
2022-11-20T02:13:07.579Z,-5.00
2022-11-20T02:15:34.769Z,-5.00
2022-11-20T02:18:14.687Z,-5.00
2022-11-20T02:20:48.235Z,-5.10
2022-11-20T02:23:34.029Z,-5.10
2022-11-20T02:26:05.921Z,-5.10
2022-11-20T02:28:33.283Z,-5.10
2022-11-20T02:31:00.153Z,-5.00
2022-11-20T02:33:26.946Z,-4.90
2022-11-20T02:35:56.739Z,-4.90
2022-11-20T02:38:24.122Z,-5.00
2022-11-20T02:40:55.364Z,-5.00
2022-11-20T02:43:23.167Z,-5.10
2022-11-20T02:45:50.177Z,-5.10
2022-11-20T02:48:19.182Z,-5.10
2022-11-20T02:50:46.411Z,-5.10
2022-11-20T02:53:13.323Z,-5.10
2022-11-20T02:55:41.673Z,-5.00
2022-11-20T02:58:22.983Z,-4.90
2022-11-20T03:00:50.259Z,-5.00
2022-11-20T03:03:17.041Z,-5.00
2022-11-20T03:05:46.426Z,-5.00
2022-11-20T03:08:15.305Z,-5.00
2022-11-20T03:10:43.599Z,-5.00
2022-11-20T03:13:10.831Z,-5.00
2022-11-20T03:15:47.729Z,-5.00
2022-11-20T03:18:17.631Z,-5.00
2022-11-20T03:20:47.245Z,-4.90
2022-11-20T03:23:39.776Z,-4.90
2022-11-20T03:26:11.491Z,-4.90
2022-11-20T03:28:38.512Z,-4.80
2022-11-20T03:31:22.634Z,-4.80
2022-11-20T03:33:49.890Z,-4.70
2022-11-20T03:36:19.389Z,-4.70
2022-11-20T03:38:46.473Z,-4.70
2022-11-20T03:41:17.885Z,-4.70
2022-11-20T03:43:50.073Z,-4.80
2022-11-20T03:46:17.510Z,-4.80
2022-11-20T03:48:51.156Z,-4.70
2022-11-20T03:51:21.551Z,-4.70
2022-11-20T03:53:52.545Z,-4.70
2022-11-20T03:56:24.294Z,-4.80
2022-11-20T03:58:51.706Z,-4.80
2022-11-20T04:01:22.630Z,-4.80
2022-11-20T04:03:51.421Z,-4.70
2022-11-20T04:06:22.838Z,-4.60
2022-11-20T04:08:53.543Z,-4.60
2022-11-20T04:11:23.695Z,-4.60
2022-11-20T04:14:00.450Z,-4.60
2022-11-20T04:16:30.089Z,-4.50
2022-11-20T04:18:59.378Z,-4.50
2022-11-20T04:21:27.421Z,-4.40
2022-11-20T04:23:57.830Z,-4.30
2022-11-20T04:26:29.310Z,-4.30
2022-11-20T04:28:58.620Z,-4.20
2022-11-20T04:31:28.896Z,-4.20
2022-11-20T04:33:59.006Z,-4.20
2022-11-20T04:36:29.158Z,-4.10
2022-11-20T04:38:59.732Z,-4.10
2022-11-20T04:41:29.956Z,-4.10
2022-11-20T04:44:04.899Z,-4.10
2022-11-20T04:46:34.679Z,-4.10
2022-11-20T04:49:01.784Z,-4.10
2022-11-20T04:51:30.603Z,-4.10
2022-11-20T04:53:59.766Z,-4.00
2022-11-20T04:56:32.581Z,-4.00
2022-11-20T04:59:03.335Z,-4.00
2022-11-20T05:01:30.974Z,-4.10
2022-11-20T05:03:57.820Z,-4.10
2022-11-20T05:06:26.839Z,-4.10
2022-11-20T05:08:54.074Z,-4.20
2022-11-20T05:11:22.431Z,-4.20
2022-11-20T05:13:50.782Z,-4.10
2022-11-20T05:16:24.684Z,-4.00
2022-11-20T05:18:52.785Z,-3.90
2022-11-20T05:21:20.690Z,-4.00
2022-11-20T05:23:50.657Z,-3.90
2022-11-20T05:26:25.547Z,-3.80
2022-11-20T05:31:50.641Z,-3.70
2022-11-20T05:34:29.847Z,-3.80
2022-11-20T05:36:59.455Z,-3.80
2022-11-20T05:39:32.774Z,-3.80
2022-11-20T05:42:25.758Z,-3.80
2022-11-20T05:44:56.038Z,-3.90
2022-11-20T05:47:25.698Z,-3.90
2022-11-20T05:49:52.795Z,-3.90
2022-11-20T05:52:21.415Z,-3.90
2022-11-20T05:54:58.294Z,-3.90
2022-11-20T05:57:25.216Z,-3.90
2022-11-20T05:59:52.489Z,-3.80
2022-11-20T06:02:19.453Z,-3.80
2022-11-20T06:04:47.360Z,-3.80
2022-11-20T06:07:14.419Z,-3.90
2022-11-20T06:09:41.170Z,-4.20
2022-11-20T06:12:08.534Z,-4.20
2022-11-20T06:14:37.135Z,-4.20
2022-11-20T06:17:03.913Z,-4.20
2022-11-20T06:19:30.635Z,-4.10
2022-11-20T06:21:57.686Z,-4.30
2022-11-20T06:24:28.674Z,-4.40
2022-11-20T06:26:55.838Z,-4.30
2022-11-20T06:29:31.337Z,-4.20
2022-11-20T06:32:00.718Z,-4.10
2022-11-20T06:34:27.685Z,-4.20
2022-11-20T06:36:56.868Z,-4.20
2022-11-20T06:39:25.589Z,-4.10
2022-11-20T06:41:58.374Z,-4.20
2022-11-20T06:44:26.022Z,-4.30
2022-11-20T06:46:53.101Z,-4.40
2022-11-20T06:49:20.237Z,-4.50
2022-11-20T06:51:47.298Z,-4.50
2022-11-20T06:54:14.541Z,-4.40
2022-11-20T06:56:44.011Z,-4.30
2022-11-20T06:59:11.391Z,-4.40
2022-11-20T07:01:41.046Z,-4.40
2022-11-20T07:04:07.829Z,-4.40
2022-11-20T07:06:36.036Z,-4.30
2022-11-20T07:09:04.746Z,-4.30
2022-11-20T07:11:35.960Z,-4.30
2022-11-20T07:14:04.161Z,-4.20
2022-11-20T07:16:35.323Z,-4.20
2022-11-20T07:19:04.972Z,-4.10
2022-11-20T07:21:40.158Z,-4.10
2022-11-20T07:24:07.292Z,-4.00
2022-11-20T07:26:34.227Z,-4.10
2022-11-20T07:29:01.321Z,-4.10
2022-11-20T07:31:29.623Z,-4.10
2022-11-20T07:33:56.693Z,-4.20
2022-11-20T07:36:23.531Z,-4.20
2022-11-20T07:38:51.708Z,-4.20
2022-11-20T07:41:19.918Z,-4.20
2022-11-20T07:43:46.662Z,-4.10
2022-11-20T07:46:13.921Z,-4.10
2022-11-20T07:48:41.480Z,-4.10
2022-11-20T07:51:13.156Z,-4.00
2022-11-20T07:53:42.668Z,-3.90
2022-11-20T07:56:14.204Z,-3.90
2022-11-20T07:58:41.461Z,-3.90
2022-11-20T08:01:11.456Z,-3.90
2022-11-20T08:03:49.844Z,-3.90
2022-11-20T08:06:16.839Z,-3.80
2022-11-20T08:08:45.498Z,-3.70
2022-11-20T08:11:30.934Z,-3.60
2022-11-20T08:14:13.201Z,-3.60
2022-11-20T08:16:48.101Z,-3.60
2022-11-20T08:19:18.935Z,-3.50
2022-11-20T08:21:53.187Z,-3.40
2022-11-20T08:24:20.038Z,-3.30
2022-11-20T08:26:48.820Z,-3.50
2022-11-20T08:29:15.727Z,-3.40
2022-11-20T08:31:44.523Z,-3.30
2022-11-20T08:34:18.629Z,-3.30
2022-11-20T08:36:45.818Z,-3.30
2022-11-20T08:39:23.599Z,-3.40
2022-11-20T08:41:50.597Z,-3.40
2022-11-20T08:44:17.596Z,-3.40
2022-11-20T08:46:48.050Z,-3.30
2022-11-20T08:49:15.970Z,-3.20
2022-11-20T08:51:43.089Z,-3.20
2022-11-20T08:54:13.727Z,-3.20
2022-11-20T08:56:40.375Z,-3.10
2022-11-20T09:01:54.370Z,-2.90
2022-11-20T09:04:21.528Z,-3.00
2022-11-20T09:06:52.052Z,-3.00
2022-11-20T09:09:22.617Z,-2.90
2022-11-20T09:11:51.430Z,-2.70
2022-11-20T09:14:18.304Z,-2.60
2022-11-20T09:16:46.970Z,-2.50
2022-11-20T09:19:34.696Z,-2.40
2022-11-20T09:22:01.365Z,-2.30
2022-11-20T09:24:28.944Z,-2.30
2022-11-20T09:26:55.677Z,-2.40
2022-11-20T09:29:31.927Z,-2.50
2022-11-20T09:31:59.879Z,-2.40
2022-11-20T09:34:26.690Z,-2.50
2022-11-20T09:36:55.163Z,-2.60
2022-11-20T09:39:25.662Z,-2.70
2022-11-20T09:42:05.471Z,-2.80
2022-11-20T09:44:54.485Z,-2.70
2022-11-20T09:47:48.729Z,-2.70
2022-11-20T09:50:49.721Z,-2.60
2022-11-20T09:53:55.572Z,-2.70
2022-11-20T09:56:39.746Z,-2.70
2022-11-20T09:59:09.521Z,-2.60
2022-11-20T10:01:42.104Z,-2.60
2022-11-20T10:04:18.078Z,-2.70
2022-11-20T10:06:59.696Z,-2.80
2022-11-20T10:09:40.670Z,-2.60
2022-11-20T10:12:07.488Z,-2.50
2022-11-20T10:14:46.376Z,-2.20
2022-11-20T10:17:54.310Z,-1.50
2022-11-20T10:20:39.993Z,-0.40
2022-11-20T10:23:09.584Z,0.30
2022-11-20T10:25:48.781Z,1.00
2022-11-20T10:28:27.762Z,1.60
2022-11-20T10:31:03.762Z,1.90
2022-11-20T10:34:05.109Z,2.50
2022-11-20T10:36:47.373Z,2.20
2022-11-20T10:39:27.211Z,2.20
2022-11-20T10:42:03.442Z,2.10
2022-11-20T10:44:55.116Z,2.10
2022-11-20T10:47:29.277Z,2.20
2022-11-20T10:50:11.208Z,2.10
2022-11-20T10:53:05.208Z,2.00
2022-11-20T10:55:42.738Z,1.40
2022-11-20T10:58:23.545Z,0.80
2022-11-20T11:01:00.534Z,0.50
2022-11-20T11:03:31.463Z,0.50
2022-11-20T11:06:12.931Z,0.30
2022-11-20T11:08:43.316Z,0.50
2022-11-20T11:11:54.790Z,0.50
2022-11-20T11:14:31.316Z,0.40
2022-11-20T11:17:28.761Z,0.50
2022-11-20T11:20:14.156Z,0.20
2022-11-20T11:22:50.915Z,0.20
2022-11-20T11:25:49.256Z,0.30
2022-11-20T11:28:21.517Z,0.20
2022-11-20T11:30:51.080Z,0.10
2022-11-20T11:33:29.522Z,0.10
2022-11-20T11:36:02.443Z,0.00
2022-11-20T11:38:39.885Z,0.00
2022-11-20T11:41:10.270Z,-0.10
2022-11-20T11:43:57.189Z,-0.10
2022-11-20T11:46:32.937Z,0.00
2022-11-20T11:49:20.783Z,0.00
2022-11-20T11:52:17.711Z,0.00
2022-11-20T11:54:53.614Z,0.00
2022-11-20T11:57:51.091Z,0.00
2022-11-20T12:00:23.120Z,0.00
2022-11-20T12:03:38.644Z,0.10
2022-11-20T12:06:13.830Z,0.10
2022-11-20T12:09:04.419Z,0.10
2022-11-20T12:12:09.009Z,0.20
2022-11-20T12:14:40.055Z,0.20
2022-11-20T12:17:09.666Z,0.20
2022-11-20T12:19:36.587Z,0.30
2022-11-20T12:22:23.963Z,0.20
2022-11-20T12:25:13.739Z,0.30
2022-11-20T12:28:08.604Z,0.30
2022-11-20T12:30:49.232Z,0.30
2022-11-20T12:34:00.518Z,0.30
2022-11-20T12:36:47.530Z,0.40
2022-11-20T12:39:18.845Z,0.50
2022-11-20T12:42:29.050Z,0.50
2022-11-20T12:45:14.366Z,0.50
2022-11-20T12:48:05.454Z,0.30
2022-11-20T12:50:42.912Z,0.20
2022-11-20T12:54:06.013Z,0.20
2022-11-20T12:56:51.078Z,0.20
2022-11-20T12:59:32.723Z,0.20
2022-11-20T13:02:21.227Z,0.20
2022-11-20T13:05:23.210Z,0.20
2022-11-20T13:07:53.415Z,0.20
2022-11-20T13:10:38.280Z,0.20
2022-11-20T13:13:24.572Z,0.30
2022-11-20T13:16:03.539Z,0.20
2022-11-20T13:18:35.227Z,0.10
2022-11-20T13:21:02.199Z,0.10
2022-11-20T13:23:29.526Z,0.00
2022-11-20T13:26:20.916Z,-0.10
2022-11-20T13:29:01.036Z,-0.30
2022-11-20T13:31:40.867Z,-0.40
2022-11-20T13:34:10.533Z,-0.50
2022-11-20T13:36:37.646Z,-0.60
2022-11-20T13:39:04.586Z,-0.60
2022-11-20T13:41:39.027Z,-0.80
2022-11-20T13:44:25.005Z,-0.80
2022-11-20T13:46:52.170Z,-0.90
2022-11-20T13:49:31.749Z,-1.00
2022-11-20T13:52:23.986Z,-1.00
2022-11-20T13:55:02.392Z,-1.10
2022-11-20T13:57:39.863Z,-1.10
2022-11-20T14:00:14.625Z,-1.20
2022-11-20T14:02:42.415Z,-1.30
2022-11-20T14:05:24.356Z,-1.30
2022-11-20T14:07:55.039Z,-1.40
2022-11-20T14:10:36.180Z,-1.40
2022-11-20T14:13:19.376Z,-1.40
2022-11-20T14:15:46.878Z,-1.40
2022-11-20T14:18:32.066Z,-1.50
2022-11-20T14:21:02.910Z,-1.40
2022-11-20T14:23:30.785Z,-1.40
2022-11-20T14:25:58.242Z,-1.50
2022-11-20T14:28:30.247Z,-1.50
2022-11-20T14:30:57.989Z,-1.40
2022-11-20T14:33:27.488Z,-1.40
2022-11-20T14:35:56.884Z,-1.40
2022-11-20T14:38:27.908Z,-1.40
2022-11-20T14:40:55.310Z,-1.40
2022-11-20T14:43:26.682Z,-1.40
2022-11-20T14:46:02.514Z,-1.40
2022-11-20T14:48:39.102Z,-1.50
2022-11-20T14:51:07.208Z,-1.50
2022-11-20T14:53:36.416Z,-1.50
2022-11-20T14:56:04.053Z,-1.60
2022-11-20T14:58:35.882Z,-1.60
2022-11-20T15:01:06.963Z,-1.60
2022-11-20T15:03:39.231Z,-1.60
2022-11-20T15:06:14.016Z,-1.60
2022-11-20T15:08:52.512Z,-1.60
2022-11-20T15:11:33.492Z,-1.70
2022-11-20T15:14:09.003Z,-1.80
2022-11-20T15:16:38.162Z,-1.80
2022-11-20T15:19:17.787Z,-1.90
2022-11-20T15:21:44.574Z,-1.80
2022-11-20T15:24:13.428Z,-1.70
2022-11-20T15:26:48.950Z,-1.70
2022-11-20T15:29:27.069Z,-1.70
2022-11-20T15:31:58.523Z,-1.70
2022-11-20T15:34:36.034Z,-1.70
2022-11-20T15:37:07.390Z,-1.70
2022-11-20T15:39:40.981Z,-1.80
2022-11-20T15:42:09.308Z,-1.80
2022-11-20T15:44:36.150Z,-1.80
2022-11-20T15:47:03.138Z,-1.80
2022-11-20T15:49:29.915Z,-1.70
2022-11-20T15:51:56.999Z,-1.70
2022-11-20T15:54:25.250Z,-1.70
2022-11-20T15:56:55.266Z,-1.80
2022-11-20T15:59:27.369Z,-1.80
2022-11-20T16:01:54.208Z,-1.80
2022-11-20T16:04:22.546Z,-1.80
2022-11-20T16:06:49.492Z,-1.80
2022-11-20T16:09:16.550Z,-1.80
2022-11-20T16:11:44.519Z,-1.80
2022-11-20T16:14:30.846Z,-1.70
2022-11-20T16:16:57.689Z,-1.70
2022-11-20T16:19:24.474Z,-1.70
2022-11-20T16:21:52.325Z,-1.80
2022-11-20T16:24:19.210Z,-1.70
2022-11-20T16:26:47.079Z,-1.80
2022-11-20T16:29:14.984Z,-1.70
2022-11-20T16:31:41.802Z,-1.80
2022-11-20T16:34:12.353Z,-1.80
2022-11-20T16:36:44.523Z,-1.90
2022-11-20T16:39:11.890Z,-1.90
2022-11-20T16:41:38.808Z,-1.90
2022-11-20T16:44:11.136Z,-1.90
2022-11-20T16:46:38.962Z,-1.90
2022-11-20T16:49:14.470Z,-2.00
2022-11-20T16:51:41.778Z,-2.00
2022-11-20T16:54:20.872Z,-2.00
2022-11-20T16:56:51.954Z,-2.10
2022-11-20T16:59:19.076Z,-2.10
2022-11-20T17:01:45.915Z,-2.10
2022-11-20T17:04:12.769Z,-2.10
2022-11-20T17:06:44.749Z,-2.00
2022-11-20T17:09:13.680Z,-2.00
2022-11-20T17:11:40.949Z,-2.00
2022-11-20T17:14:08.072Z,-2.00
2022-11-20T17:16:36.600Z,-2.00
2022-11-20T17:19:05.205Z,-2.00
2022-11-20T17:21:36.348Z,-1.90
2022-11-20T17:24:06.283Z,-1.90
2022-11-20T17:26:35.394Z,-1.90
2022-11-20T17:29:06.913Z,-1.90
2022-11-20T17:31:39.850Z,-1.80
2022-11-20T17:34:08.934Z,-1.70
2022-11-20T17:36:44.852Z,-1.70
2022-11-20T17:39:17.318Z,-1.70
2022-11-20T17:42:06.079Z,-1.60
2022-11-20T17:44:35.475Z,-1.60
2022-11-20T17:47:04.535Z,-1.60
2022-11-20T17:49:38.952Z,-1.50
2022-11-20T17:54:47.558Z,-1.50
2022-11-20T17:57:49.354Z,-1.50
2022-11-20T18:00:28.654Z,-1.50
2022-11-20T18:03:28.641Z,-1.40
2022-11-20T18:05:57.943Z,-1.40
2022-11-20T18:08:30.161Z,-1.40
2022-11-20T18:11:28.763Z,-1.40
2022-11-20T18:14:25.914Z,-1.40
2022-11-20T18:17:04.504Z,-1.40
2022-11-20T18:20:27.407Z,-1.30
2022-11-20T18:23:14.028Z,-1.30
2022-11-20T18:25:47.787Z,-1.30
2022-11-20T18:28:18.645Z,-1.30
2022-11-20T18:30:54.056Z,-1.30
2022-11-20T18:33:28.489Z,-1.30
2022-11-20T18:35:59.357Z,-1.30
2022-11-20T18:38:27.116Z,-1.20
2022-11-20T18:41:03.989Z,-1.20
2022-11-20T18:43:50.668Z,-1.20
2022-11-20T18:46:19.682Z,-1.20
2022-11-20T18:48:49.193Z,-1.20
2022-11-20T18:51:17.156Z,-1.20
2022-11-20T18:53:47.335Z,-1.20
2022-11-20T18:56:19.542Z,-1.20
2022-11-20T18:59:08.301Z,-1.20
2022-11-20T19:01:38.365Z,-1.20
2022-11-20T19:04:16.977Z,-1.20
2022-11-20T19:06:45.962Z,-1.20
2022-11-20T19:09:17.190Z,-1.20
2022-11-20T19:11:46.406Z,-1.20
2022-11-20T19:14:13.395Z,-1.20
2022-11-20T19:16:44.737Z,-1.20
2022-11-20T19:19:13.179Z,-1.20
2022-11-20T19:22:29.782Z,-1.10
2022-11-20T19:24:59.356Z,-1.20
2022-11-20T19:27:26.713Z,-1.20
2022-11-20T19:30:11.863Z,-1.20
2022-11-20T19:33:31.828Z,-1.10
2022-11-20T19:36:08.059Z,-1.10
2022-11-20T19:38:47.556Z,-1.10
2022-11-20T19:41:39.278Z,-1.10
2022-11-20T19:44:18.832Z,-1.10
2022-11-20T19:46:58.803Z,-1.10
2022-11-20T19:49:47.360Z,-1.10
2022-11-20T19:52:17.229Z,-1.10
2022-11-20T19:54:44.273Z,-1.10
2022-11-20T19:57:37.424Z,-1.00
2022-11-20T20:00:06.050Z,-1.00
2022-11-20T20:02:34.220Z,-1.00
2022-11-20T20:05:21.705Z,-0.90
2022-11-20T20:07:53.794Z,-0.90
2022-11-20T20:10:22.311Z,-0.90
2022-11-20T20:12:49.212Z,-0.90
2022-11-20T20:15:16.176Z,-0.90
2022-11-20T20:17:48.407Z,-0.90
2022-11-20T20:20:18.492Z,-0.90
2022-11-20T20:22:45.330Z,-0.90
2022-11-20T20:25:12.425Z,-0.80
2022-11-20T20:27:39.589Z,-0.90
2022-11-20T20:30:08.104Z,-0.90
2022-11-20T20:32:38.135Z,-1.00
2022-11-20T20:35:06.140Z,-0.90
2022-11-20T20:37:34.369Z,-1.00
2022-11-20T20:40:01.266Z,-1.00
2022-11-20T20:42:37.603Z,-1.00
2022-11-20T20:45:07.772Z,-1.00
2022-11-20T20:47:38.185Z,-1.00
2022-11-20T20:50:08.760Z,-1.00
2022-11-20T20:52:36.009Z,-1.00
2022-11-20T20:55:05.568Z,-1.00
2022-11-20T20:57:32.403Z,-1.00
2022-11-20T21:00:09.022Z,-1.00
2022-11-20T21:02:35.978Z,-1.00
2022-11-20T21:05:03.913Z,-0.90
2022-11-20T21:08:13.448Z,-0.90
2022-11-20T21:10:40.653Z,-1.00
2022-11-20T21:13:10.333Z,-1.00
2022-11-20T21:15:39.901Z,-0.90
2022-11-20T21:18:09.442Z,-0.90
2022-11-20T21:20:57.783Z,-0.90
2022-11-20T21:23:26.705Z,-0.90
2022-11-20T21:25:53.844Z,-0.90
2022-11-20T21:28:24.775Z,-0.90
2022-11-20T21:30:51.626Z,-0.90
2022-11-20T21:33:19.035Z,-1.00
2022-11-20T21:35:45.911Z,-1.00
2022-11-20T21:38:12.742Z,-1.00
2022-11-20T21:40:39.495Z,-1.10
2022-11-20T21:43:06.238Z,-1.20
2022-11-20T21:45:32.971Z,-1.20
2022-11-20T21:48:01.810Z,-1.20
2022-11-20T21:50:28.519Z,-1.20
2022-11-20T21:52:56.505Z,-1.20
2022-11-20T21:55:23.534Z,-1.20
2022-11-20T21:57:50.273Z,-1.30
2022-11-20T22:00:19.555Z,-1.40
2022-11-20T22:02:46.287Z,-1.40
2022-11-20T22:05:15.784Z,-1.50
2022-11-20T22:07:46.137Z,-1.40
2022-11-20T22:10:18.152Z,-1.40
2022-11-20T22:12:45.371Z,-1.50
2022-11-20T22:15:12.104Z,-1.50
2022-11-20T22:17:57.649Z,-1.50
2022-11-20T22:20:24.378Z,-1.50
2022-11-20T22:22:51.179Z,-1.40
2022-11-20T22:25:17.973Z,-1.40
2022-11-20T22:27:46.633Z,-1.30
2022-11-20T22:30:13.735Z,-1.30
2022-11-20T22:32:40.649Z,-1.30
2022-11-20T22:35:07.832Z,-1.30
2022-11-20T22:37:34.672Z,-1.30
2022-11-20T22:40:01.498Z,-1.20
2022-11-20T22:42:33.427Z,-1.10
2022-11-20T22:45:46.533Z,-1.10
2022-11-20T22:48:13.616Z,-1.10
2022-11-20T22:50:40.646Z,-1.00
2022-11-20T22:53:11.658Z,-1.00
2022-11-20T22:55:38.640Z,-1.00
2022-11-20T22:58:06.498Z,-0.90
2022-11-20T23:00:33.336Z,-0.90
2022-11-20T23:03:00.118Z,-0.90
2022-11-20T23:05:28.362Z,-0.90
2022-11-20T23:07:57.520Z,-0.90
2022-11-20T23:10:26.957Z,-0.90
2022-11-20T23:12:55.928Z,-0.80
2022-11-20T23:15:22.759Z,-0.80
2022-11-20T23:17:49.600Z,-0.80
2022-11-20T23:20:19.624Z,-0.80
2022-11-20T23:22:46.460Z,-0.70
2022-11-20T23:25:13.175Z,-0.70
2022-11-20T23:27:39.863Z,-0.70
2022-11-20T23:30:08.723Z,-0.60
2022-11-20T23:32:35.466Z,-0.60
2022-11-20T23:35:02.332Z,-0.60
2022-11-20T23:37:29.076Z,-0.60
2022-11-20T23:39:55.986Z,-0.60
2022-11-20T23:42:25.470Z,-0.50
2022-11-20T23:44:52.315Z,-0.50
2022-11-20T23:47:19.024Z,-0.50
2022-11-20T23:49:45.692Z,-0.50
2022-11-20T23:52:12.419Z,-0.50
2022-11-20T23:54:39.162Z,-0.50
2022-11-20T23:57:05.903Z,-0.50
2022-11-20T23:59:32.577Z,-0.50
